Time;durP1;ratioP1;P1;durP2;ratioP2;P2;SDS_P1;SDS_P2;PMS_P1;PMS_P2;Temp;Humidity;BMP_temperature;BMP_pressure;BME280_temperature;BME280_humidity;BME280_pressure;Samples;Min_cycle;Max_cycle;Signal;HPM_P1;HPM_P2
2023/02/06 00:02:03;;;;;;;26.07;18.70;;;2.20;99.90;;;;;;5024667;28;20219;-53
2023/02/06 00:04:31;;;;;;;28.80;18.43;;;2.20;99.90;;;;;;5021604;28;20254;-51
2023/02/06 00:06:58;;;;;;;23.80;17.40;;;2.30;99.90;;;;;;5033023;28;20286;-51
2023/02/06 00:09:25;;;;;;;24.10;17.53;;;2.30;99.90;;;;;;5028315;28;20204;-51
2023/02/06 00:11:52;;;;;;;23.47;17.33;;;2.30;99.90;;;;;;5038360;28;20203;-51
2023/02/06 00:14:19;;;;;;;27.33;16.97;;;2.30;99.90;;;;;;5019051;28;20229;-52
2023/02/06 00:16:46;;;;;;;23.37;17.63;;;2.30;99.90;;;;;;5028683;28;20204;-51
2023/02/06 00:19:13;;;;;;;26.00;15.70;;;2.30;99.90;;;;;;5029099;28;20273;-51
2023/02/06 00:21:42;;;;;;;21.93;15.80;;;2.50;99.90;;;;;;5038922;28;20216;-51
2023/02/06 00:24:09;;;;;;;24.43;16.50;;;2.40;99.90;;;;;;5033146;28;20196;-50
2023/02/06 00:26:36;;;;;;;24.73;15.97;;;2.40;99.90;;;;;;5023839;28;20211;-51
2023/02/06 00:29:03;;;;;;;25.07;16.40;;;2.40;99.90;;;;;;5039133;28;20217;-51
2023/02/06 00:31:30;;;;;;;20.80;15.03;;;2.50;99.90;;;;;;5034298;28;20231;-52
2023/02/06 00:33:57;;;;;;;24.27;15.70;;;2.50;99.90;;;;;;5034357;28;20338;-50
2023/02/06 00:36:24;;;;;;;24.00;14.90;;;2.50;99.90;;;;;;5021790;28;20205;-50
2023/02/06 00:38:53;;;;;;;19.63;14.07;;;2.60;99.90;;;;;;5045767;28;20290;-51
2023/02/06 00:41:20;;;;;;;19.77;14.77;;;2.60;99.90;;;;;;5027906;28;20196;-53
2023/02/06 00:43:47;;;;;;;24.93;15.43;;;2.60;99.90;;;;;;5022416;28;20201;-51
2023/02/06 00:46:14;;;;;;;21.00;14.23;;;2.60;99.90;;;;;;5028231;28;20204;-51
2023/02/06 00:48:41;;;;;;;23.57;15.87;;;2.70;99.90;;;;;;5017686;28;20221;-52
2023/02/06 00:51:08;;;;;;;21.83;15.17;;;2.60;99.90;;;;;;5035613;28;20234;-51
2023/02/06 00:53:35;;;;;;;21.47;15.17;;;2.70;99.90;;;;;;5027801;28;20245;-50
2023/02/06 00:56:04;;;;;;;22.67;15.07;;;2.80;99.90;;;;;;5030101;28;20584;-51
2023/02/06 00:58:31;;;;;;;22.83;14.90;;;2.80;99.90;;;;;;5032642;28;20702;-54
2023/02/06 01:00:58;;;;;;;23.87;15.37;;;2.80;99.90;;;;;;5044121;28;20250;-51
2023/02/06 01:03:25;;;;;;;22.03;15.97;;;2.70;99.90;;;;;;5027512;28;20661;-51
2023/02/06 01:05:52;;;;;;;20.83;14.37;;;2.70;99.90;;;;;;5014348;28;20276;-50
2023/02/06 01:08:19;;;;;;;21.93;14.93;;;2.60;99.90;;;;;;5022822;28;20220;-51
2023/02/06 01:10:46;;;;;;;22.80;15.93;;;2.60;99.90;;;;;;5028723;28;20200;-51
2023/02/06 01:13:14;;;;;;;21.80;15.53;;;2.60;99.90;;;;;;5028022;28;20200;-51
2023/02/06 01:15:41;;;;;;;23.53;15.67;;;2.50;99.90;;;;;;5034992;28;20263;-51
2023/02/06 01:18:08;;;;;;;19.73;12.27;;;2.60;99.90;;;;;;5029008;28;20304;-51
2023/02/06 01:20:35;;;;;;;17.23;12.37;;;2.70;99.90;;;;;;5033666;28;20274;-51
2023/02/06 01:23:03;;;;;;;17.37;12.90;;;2.70;99.90;;;;;;5035015;28;20681;-50
2023/02/06 01:25:30;;;;;;;15.60;11.20;;;2.80;99.90;;;;;;5041477;28;20249;-51
2023/02/06 01:27:56;;;;;;;16.47;11.83;;;2.80;99.90;;;;;;5039267;28;20265;-50
2023/02/06 01:30:25;;;;;;;17.97;11.70;;;2.90;99.90;;;;;;5040759;28;20195;-51
2023/02/06 01:32:52;;;;;;;16.23;11.20;;;2.80;99.90;;;;;;5024831;28;20231;-51
2023/02/06 01:35:19;;;;;;;19.60;13.43;;;2.80;99.90;;;;;;5026436;28;20855;-51
2023/02/06 01:37:46;;;;;;;17.90;12.90;;;2.80;99.90;;;;;;5034368;28;20228;-51
2023/02/06 01:40:15;;;;;;;17.37;11.67;;;2.90;99.90;;;;;;5029716;28;20204;-52
2023/02/06 01:42:42;;;;;;;18.30;12.30;;;2.90;99.90;;;;;;5025432;28;20312;-50
2023/02/06 01:45:37;;;;;;;20.80;12.27;;;2.90;99.90;;;;;;5024676;28;20257;-51
2023/02/06 01:48:08;;;;;;;18.17;12.77;;;2.90;99.90;;;;;;5025018;28;20360;-51
2023/02/06 01:50:40;;;;;;;22.57;13.83;;;2.80;99.90;;;;;;5030283;28;20205;-50
2023/02/06 01:53:07;;;;;;;20.90;12.97;;;2.80;99.90;;;;;;5032768;28;20257;-51
2023/02/06 01:55:36;;;;;;;22.83;12.83;;;2.70;99.90;;;;;;5030924;28;20265;-50
2023/02/06 01:58:05;;;;;;;22.33;14.17;;;2.80;99.90;;;;;;5036135;28;20233;-50
2023/02/06 02:00:33;;;;;;;22.10;13.40;;;2.70;99.90;;;;;;5034255;28;20731;-50
2023/02/06 02:03:01;;;;;;;24.83;13.27;;;2.70;99.90;;;;;;5029598;28;20206;-50
2023/02/06 02:05:31;;;;;;;22.57;14.13;;;2.70;99.90;;;;;;5039428;28;20283;-51
2023/02/06 02:08:03;;;;;;;22.63;13.37;;;2.60;99.90;;;;;;5026500;28;20686;-50
2023/02/06 02:10:31;;;;;;;21.43;13.30;;;2.70;99.90;;;;;;5040864;28;20206;-51
2023/02/06 02:12:58;;;;;;;21.47;14.40;;;2.70;99.90;;;;;;5034211;28;20224;-50
2023/02/06 02:15:35;;;;;;;24.07;14.67;;;2.80;99.90;;;;;;5026175;28;20632;-49
2023/02/06 02:18:12;;;;;;;23.03;13.47;;;2.80;99.90;;;;;;5016305;28;20366;-51
2023/02/06 02:21:21;;;;;;;21.77;13.43;;;2.80;99.90;;;;;;5035852;28;20207;-50
2023/02/06 02:23:56;;;;;;;22.13;13.97;;;2.70;99.90;;;;;;5027243;28;20276;-53
2023/02/06 02:26:56;;;;;;;18.83;13.33;;;2.70;99.90;;;;;;5029686;28;20253;-51
2023/02/06 02:29:57;;;;;;;23.97;15.00;;;2.70;99.90;;;;;;5025002;28;20204;-51
2023/02/06 02:33:00;;;;;;;20.67;13.13;;;2.70;99.90;;;;;;5031249;28;20211;-52
2023/02/06 02:35:32;;;;;;;24.20;15.60;;;2.70;99.90;;;;;;4996204;28;20678;-49
2023/02/06 02:38:13;;;;;;;20.73;12.77;;;2.80;99.90;;;;;;5029728;28;20224;-50
2023/02/06 02:40:46;;;;;;;25.63;14.10;;;2.70;99.90;;;;;;5039492;28;20206;-50
2023/02/06 02:43:21;;;;;;;20.40;13.60;;;2.70;99.90;;;;;;5026528;28;20656;-51
2023/02/06 02:45:52;;;;;;;20.50;13.43;;;2.70;99.90;;;;;;5044046;28;20626;-49
2023/02/06 02:48:24;;;;;;;21.83;14.07;;;2.70;99.90;;;;;;5033562;28;20287;-51
2023/02/06 02:50:53;;;;;;;24.27;15.07;;;2.80;99.90;;;;;;5021516;28;20208;-50
2023/02/06 02:53:20;;;;;;;23.17;14.30;;;2.80;99.90;;;;;;5022495;28;20351;-50
2023/02/06 02:55:48;;;;;;;21.90;14.17;;;2.80;99.90;;;;;;5041397;28;20199;-50
2023/02/06 02:58:18;;;;;;;22.97;13.00;;;2.80;99.90;;;;;;5026652;28;20652;-50
2023/02/06 03:00:50;;;;;;;20.43;14.17;;;2.80;99.90;;;;;;5040247;28;20216;-49
2023/02/06 03:03:21;;;;;;;24.07;15.30;;;2.80;99.90;;;;;;5035533;28;20204;-49
2023/02/06 03:06:06;;;;;;;20.60;13.43;;;2.80;99.90;;;;;;5037402;28;20204;-49
2023/02/06 03:08:44;;;;;;;21.87;13.50;;;2.80;99.90;;;;;;5033667;28;20227;-49
2023/02/06 03:11:14;;;;;;;26.37;14.33;;;2.80;99.90;;;;;;5019783;28;20277;-51
2023/02/06 03:13:48;;;;;;;21.53;14.50;;;2.70;99.90;;;;;;5034121;28;20203;-51
2023/02/06 03:16:21;;;;;;;21.83;13.70;;;2.70;99.90;;;;;;5042576;28;20200;-51
2023/02/06 03:18:56;;;;;;;29.47;15.50;;;2.70;99.90;;;;;;5028675;28;20229;-50
2023/02/06 03:21:26;;;;;;;21.37;14.40;;;2.70;99.90;;;;;;5027165;28;20607;-51
2023/02/06 03:23:57;;;;;;;25.80;14.33;;;2.70;99.90;;;;;;5032773;28;20203;-51
2023/02/06 03:26:28;;;;;;;20.83;13.57;;;2.70;99.90;;;;;;5031418;28;20277;-50
2023/02/06 03:29:02;;;;;;;21.83;13.57;;;2.70;99.90;;;;;;5027066;28;20286;-51
2023/02/06 03:31:33;;;;;;;24.40;13.20;;;2.70;99.90;;;;;;5045502;28;20640;-49
2023/02/06 03:34:08;;;;;;;26.37;14.30;;;2.80;99.90;;;;;;5020119;28;20654;-50
2023/02/06 03:36:36;;;;;;;21.70;14.03;;;2.70;99.90;;;;;;5028618;28;20352;-49
2023/02/06 03:39:04;;;;;;;24.47;15.30;;;2.70;99.90;;;;;;5037601;28;20219;-50
2023/02/06 03:41:34;;;;;;;25.97;16.00;;;2.70;99.90;;;;;;5028905;28;20243;-50
2023/02/06 03:44:03;;;;;;;21.67;14.10;;;2.70;99.90;;;;;;5022349;28;20200;-50
2023/02/06 03:46:32;;;;;;;24.83;14.80;;;2.60;99.90;;;;;;5029442;28;20253;-50
2023/02/06 03:49:02;;;;;;;24.47;15.80;;;2.70;99.90;;;;;;5028048;28;20689;-50
2023/02/06 03:51:33;;;;;;;22.10;13.33;;;2.70;99.90;;;;;;5039313;28;20269;-50
2023/02/06 03:54:04;;;;;;;22.80;13.83;;;2.70;99.90;;;;;;5026084;28;20283;-51
2023/02/06 03:56:35;;;;;;;24.47;13.63;;;2.70;99.90;;;;;;5026665;28;20203;-52
2023/02/06 03:59:02;;;;;;;22.23;13.50;;;2.60;99.90;;;;;;5024887;28;20235;-50
2023/02/06 04:01:29;;;;;;;20.07;14.07;;;2.60;99.90;;;;;;5028656;28;20201;-50
2023/02/06 04:03:58;;;;;;;21.03;13.73;;;2.70;99.90;;;;;;5032980;28;20244;-50
2023/02/06 04:06:25;;;;;;;20.67;13.07;;;2.70;99.90;;;;;;5034922;28;20200;-50
2023/02/06 04:08:52;;;;;;;19.93;12.30;;;2.70;99.90;;;;;;5022549;28;20227;-52
2023/02/06 04:11:20;;;;;;;22.90;12.17;;;2.70;99.90;;;;;;5039473;28;20206;-50
2023/02/06 04:13:47;;;;;;;25.63;14.67;;;2.60;99.90;;;;;;5035343;28;20274;-50
2023/02/06 04:16:14;;;;;;;17.20;11.30;;;2.60;99.90;;;;;;5037531;28;20573;-50
2023/02/06 04:18:41;;;;;;;22.07;13.27;;;2.70;99.90;;;;;;5043925;28;20221;-50
2023/02/06 04:21:08;;;;;;;21.17;12.83;;;2.60;99.90;;;;;;5052768;28;20210;-51
2023/02/06 04:23:35;;;;;;;20.60;12.60;;;2.60;99.90;;;;;;5040762;28;20212;-49
2023/02/06 04:26:02;;;;;;;26.80;14.57;;;2.60;99.90;;;;;;5052588;28;20202;-51
2023/02/06 04:28:31;;;;;;;22.40;13.60;;;2.60;99.90;;;;;;5034915;28;20288;-50
2023/02/06 04:30:58;;;;;;;19.60;11.90;;;2.70;99.90;;;;;;5036639;28;20192;-50
2023/02/06 04:33:25;;;;;;;19.90;12.83;;;2.70;99.90;;;;;;5043657;28;20196;-49
2023/02/06 04:35:52;;;;;;;23.30;14.00;;;2.70;99.90;;;;;;5047429;28;20739;-49
2023/02/06 04:38:19;;;;;;;22.10;13.20;;;2.70;99.90;;;;;;5040473;28;20212;-51
2023/02/06 04:40:46;;;;;;;18.43;11.97;;;2.70;99.90;;;;;;5040554;28;20278;-50
2023/02/06 04:43:12;;;;;;;23.30;12.43;;;2.60;99.90;;;;;;5026760;28;20252;-51
2023/02/06 04:45:41;;;;;;;22.47;12.60;;;2.60;99.90;;;;;;5038107;28;20672;-49
2023/02/06 04:48:08;;;;;;;20.70;12.33;;;2.60;99.90;;;;;;5039920;28;20223;-49
2023/02/06 04:50:35;;;;;;;20.53;13.03;;;2.60;99.90;;;;;;5030928;28;20208;-49
2023/02/06 04:53:02;;;;;;;18.87;12.07;;;2.60;99.90;;;;;;5033512;28;20204;-50
2023/02/06 04:55:29;;;;;;;23.03;13.93;;;2.60;99.90;;;;;;5036708;28;20260;-51
2023/02/06 04:57:56;;;;;;;21.27;12.30;;;2.60;99.90;;;;;;5056576;22;20295;-50
2023/02/06 05:00:23;;;;;;;23.17;13.03;;;2.60;99.90;;;;;;5066320;28;20261;-50
2023/02/06 05:02:52;;;;;;;26.40;14.87;;;2.60;99.90;;;;;;5070083;28;20622;-48
2023/02/06 05:05:19;;;;;;;26.33;15.57;;;2.70;99.90;;;;;;5071242;28;20198;-48
2023/02/06 05:07:46;;;;;;;24.33;13.83;;;2.70;99.90;;;;;;5072047;28;20211;-47
2023/02/06 05:10:13;;;;;;;24.17;14.73;;;2.70;99.90;;;;;;5071922;28;20652;-48
2023/02/06 05:12:41;;;;;;;23.90;13.00;;;2.70;99.90;;;;;;5072907;28;20199;-49
2023/02/06 05:15:09;;;;;;;23.20;13.93;;;2.70;99.90;;;;;;5070452;28;20256;-48
2023/02/06 05:17:36;;;;;;;25.73;14.90;;;2.70;99.90;;;;;;5066262;28;20274;-48
2023/02/06 05:20:06;;;;;;;23.40;14.77;;;2.80;99.90;;;;;;5072059;28;20264;-48
2023/02/06 05:22:32;;;;;;;25.67;15.53;;;2.80;99.90;;;;;;5052783;28;20206;-48
2023/02/06 05:25:00;;;;;;;25.50;14.60;;;2.80;99.90;;;;;;5070449;28;20198;-48
2023/02/06 05:27:27;;;;;;;22.27;13.80;;;2.80;99.90;;;;;;5071821;28;20257;-48
2023/02/06 05:29:54;;;;;;;27.40;15.20;;;2.80;99.90;;;;;;5070876;28;20218;-48
2023/02/06 05:32:21;;;;;;;26.73;14.70;;;2.80;99.90;;;;;;5067143;28;20552;-48
2023/02/06 05:34:48;;;;;;;25.77;15.13;;;2.80;99.90;;;;;;5070603;28;20206;-48
2023/02/06 05:37:17;;;;;;;27.07;16.40;;;2.80;99.90;;;;;;5071910;28;20305;-48
2023/02/06 05:39:44;;;;;;;24.63;14.97;;;2.80;99.90;;;;;;5051978;28;20221;-48
2023/02/06 05:42:11;;;;;;;27.90;15.73;;;2.80;99.90;;;;;;5061126;28;20315;-48
2023/02/06 05:44:38;;;;;;;27.10;14.30;;;2.80;99.90;;;;;;5069071;28;20248;-48
2023/02/06 05:47:05;;;;;;;26.60;16.17;;;2.80;99.90;;;;;;5071793;28;20626;-48
2023/02/06 05:49:32;;;;;;;31.50;15.63;;;2.80;99.90;;;;;;5070272;28;20765;-48
2023/02/06 05:51:59;;;;;;;29.63;15.00;;;2.80;99.90;;;;;;5068555;28;20199;-48
2023/02/06 05:54:28;;;;;;;31.17;16.03;;;2.80;99.90;;;;;;5070196;28;20196;-48
2023/02/06 05:56:56;;;;;;;26.03;15.83;;;2.80;99.90;;;;;;5070317;28;20202;-48
2023/02/06 05:59:23;;;;;;;30.33;16.17;;;2.80;99.90;;;;;;5070976;28;20333;-48
2023/02/06 06:01:50;;;;;;;29.90;15.80;;;2.80;99.90;;;;;;5071093;28;20676;-48
2023/02/06 06:04:17;;;;;;;30.77;17.43;;;2.80;99.90;;;;;;5070663;28;20194;-48
2023/02/06 06:06:44;;;;;;;32.23;17.50;;;2.70;99.90;;;;;;5071784;28;20247;-48
2023/02/06 06:09:11;;;;;;;27.80;15.80;;;2.70;99.90;;;;;;5071841;28;20222;-51
2023/02/06 06:11:39;;;;;;;27.40;13.90;;;2.70;99.90;;;;;;5072092;28;20214;-50
2023/02/06 06:14:06;;;;;;;26.47;14.87;;;2.70;99.90;;;;;;5071574;28;20225;-50
2023/02/06 06:16:33;;;;;;;28.83;15.40;;;2.70;99.90;;;;;;5071731;28;20210;-50
2023/02/06 06:19:01;;;;;;;26.13;14.60;;;2.70;99.90;;;;;;5071586;28;20723;-50
2023/02/06 06:21:28;;;;;;;28.23;15.07;;;2.70;99.90;;;;;;5071723;28;20284;-50
2023/02/06 06:23:55;;;;;;;27.60;15.60;;;2.80;99.90;;;;;;5071809;28;20252;-48
2023/02/06 06:26:23;;;;;;;26.07;14.73;;;2.80;99.90;;;;;;5071935;28;20614;-48
2023/02/06 06:28:51;;;;;;;30.03;14.77;;;2.80;99.90;;;;;;5071686;28;20222;-48
2023/02/06 06:31:18;;;;;;;28.17;16.43;;;2.90;99.90;;;;;;5071735;28;20208;-48
2023/02/06 06:33:45;;;;;;;26.07;13.77;;;2.90;99.90;;;;;;5071636;28;20572;-48
2023/02/06 06:36:13;;;;;;;27.47;14.90;;;2.90;99.90;;;;;;5072235;28;20371;-48
2023/02/06 06:38:40;;;;;;;40.40;21.07;;;2.90;99.90;;;;;;5071861;28;20225;-48
2023/02/06 06:41:07;;;;;;;44.63;22.37;;;2.90;99.90;;;;;;5055430;28;20276;-48
2023/02/06 06:43:34;;;;;;;30.20;18.53;;;2.90;99.90;;;;;;5066837;28;20247;-48
2023/02/06 06:46:04;;;;;;;31.13;17.73;;;2.80;99.90;;;;;;5070652;28;20198;-48
2023/02/06 06:48:31;;;;;;;29.00;15.37;;;2.80;99.90;;;;;;5070317;28;20230;-48
2023/02/06 06:50:58;;;;;;;23.03;13.30;;;2.70;99.90;;;;;;5061666;28;20202;-48
2023/02/06 06:53:25;;;;;;;24.73;13.37;;;2.70;99.90;;;;;;5070324;28;20252;-47
2023/02/06 06:55:52;;;;;;;28.03;14.13;;;2.70;99.90;;;;;;5063726;28;20199;-49
2023/02/06 06:58:19;;;;;;;23.70;13.20;;;2.70;99.90;;;;;;5069926;28;20229;-50
2023/02/06 07:00:47;;;;;;;28.17;17.07;;;2.70;99.90;;;;;;5070217;28;20223;-50
2023/02/06 07:03:15;;;;;;;30.47;17.13;;;2.70;99.90;;;;;;5071368;28;20199;-50
2023/02/06 07:05:42;;;;;;;26.67;16.10;;;2.70;99.90;;;;;;5071164;28;20672;-48
2023/02/06 07:08:09;;;;;;;23.80;15.87;;;2.70;99.90;;;;;;5060213;28;20336;-48
2023/02/06 07:10:36;;;;;;;27.20;18.03;;;2.70;99.90;;;;;;5070072;28;20202;-48
2023/02/06 07:13:03;;;;;;;24.93;15.53;;;2.70;99.90;;;;;;5067350;28;20260;-48
2023/02/06 07:15:30;;;;;;;27.97;18.23;;;2.70;99.90;;;;;;5071260;28;20192;-49
2023/02/06 07:17:57;;;;;;;25.00;17.13;;;2.70;99.90;;;;;;5066061;28;20230;-48
2023/02/06 07:20:25;;;;;;;24.70;16.83;;;2.70;99.90;;;;;;5071070;28;20685;-49
2023/02/06 07:22:52;;;;;;;30.73;18.30;;;2.70;99.90;;;;;;5069846;28;20280;-48
2023/02/06 07:25:20;;;;;;;27.17;17.30;;;2.70;99.90;;;;;;5069687;28;20206;-48
2023/02/06 07:27:48;;;;;;;26.50;17.10;;;2.80;99.90;;;;;;5070210;28;20714;-49
2023/02/06 07:30:15;;;;;;;28.03;15.57;;;2.80;99.90;;;;;;5067102;28;20237;-48
2023/02/06 07:32:42;;;;;;;31.63;17.33;;;2.90;99.90;;;;;;5073243;28;20215;-49
2023/02/06 07:35:09;;;;;;;26.67;14.27;;;2.90;99.90;;;;;;5073584;28;20199;-48
2023/02/06 07:37:37;;;;;;;26.60;15.10;;;3.00;99.90;;;;;;5073130;28;20206;-49
2023/02/06 07:40:05;;;;;;;26.17;13.73;;;3.00;99.90;;;;;;5073790;28;20267;-48
2023/02/06 07:42:33;;;;;;;24.87;14.33;;;3.00;99.90;;;;;;5072910;28;20260;-48
2023/02/06 07:45:00;;;;;;;24.03;14.70;;;3.00;99.90;;;;;;5074158;28;20282;-48
2023/02/06 07:47:29;;;;;;;23.27;14.03;;;3.10;99.90;;;;;;5074411;28;20255;-48
2023/02/06 07:49:56;;;;;;;29.43;14.73;;;3.20;99.90;;;;;;5074232;28;20226;-47
2023/02/06 07:52:26;;;;;;;32.63;15.77;;;3.30;99.90;;;;;;5071746;28;20255;-48
2023/02/06 07:54:55;;;;;;;27.80;14.73;;;3.30;99.90;;;;;;5074055;28;20669;-49
2023/02/06 07:57:22;;;;;;;24.27;14.40;;;3.20;99.90;;;;;;5074482;28;20207;-48
2023/02/06 07:59:49;;;;;;;29.80;15.57;;;3.30;99.90;;;;;;5073847;28;20230;-48
2023/02/06 08:02:16;;;;;;;28.70;15.40;;;3.20;99.90;;;;;;5069513;28;20256;-48
2023/02/06 08:04:43;;;;;;;31.57;15.23;;;3.20;99.90;;;;;;5073662;28;20668;-49
2023/02/06 08:07:13;;;;;;;24.87;13.97;;;3.20;99.90;;;;;;5074220;28;20209;-48
2023/02/06 08:09:41;;;;;;;24.03;14.00;;;3.20;99.90;;;;;;5073557;28;20565;-48
2023/02/06 08:12:09;;;;;;;26.80;14.60;;;3.30;99.90;;;;;;5069105;28;20195;-48
2023/02/06 08:14:36;;;;;;;23.60;14.50;;;3.30;99.90;;;;;;5074054;28;20202;-48
2023/02/06 08:17:03;;;;;;;24.37;14.90;;;3.30;99.90;;;;;;5073641;28;20207;-48
2023/02/06 08:19:30;;;;;;;26.00;15.33;;;3.30;99.90;;;;;;5073495;28;20227;-48
2023/02/06 08:21:57;;;;;;;21.03;12.67;;;3.40;99.90;;;;;;5072529;28;20276;-48
2023/02/06 08:24:24;;;;;;;24.27;14.60;;;3.40;99.90;;;;;;5072775;28;20280;-49
2023/02/06 08:26:51;;;;;;;23.33;13.80;;;3.50;99.90;;;;;;5073585;28;20207;-48
2023/02/06 08:29:19;;;;;;;23.27;12.43;;;3.50;99.90;;;;;;5073761;28;20218;-48
2023/02/06 08:31:46;;;;;;;22.20;13.70;;;3.50;99.90;;;;;;5063664;28;20220;-47
2023/02/06 08:34:14;;;;;;;21.13;13.67;;;3.50;99.90;;;;;;5073125;28;20203;-48
2023/02/06 08:36:42;;;;;;;21.23;13.07;;;3.50;99.90;;;;;;5073782;28;20274;-48
2023/02/06 08:39:10;;;;;;;20.63;12.40;;;3.40;99.90;;;;;;5073578;28;20283;-48
2023/02/06 08:41:41;;;;;;;26.07;14.80;;;3.40;99.90;;;;;;5071467;28;20228;-48
2023/02/06 08:44:12;;;;;;;22.67;14.03;;;3.30;99.90;;;;;;5073120;28;20194;-48
2023/02/06 08:46:41;;;;;;;23.13;14.50;;;3.10;99.90;;;;;;5072095;28;20203;-48
2023/02/06 08:49:12;;;;;;;23.93;14.43;;;3.10;99.90;;;;;;5073372;28;20215;-48
2023/02/06 08:51:39;;;;;;;23.80;14.20;;;2.90;99.90;;;;;;5071373;28;20251;-47
2023/02/06 08:54:08;;;;;;;22.23;13.90;;;2.90;99.90;;;;;;5073108;28;20212;-48
2023/02/06 08:56:37;;;;;;;25.67;14.10;;;2.80;99.90;;;;;;5068922;28;20737;-47
2023/02/06 08:59:05;;;;;;;22.73;14.93;;;2.80;99.90;;;;;;5070557;28;20282;-48
2023/02/06 09:01:34;;;;;;;26.83;14.47;;;2.90;99.90;;;;;;5072827;28;20719;-48
2023/02/06 09:04:06;;;;;;;23.87;15.47;;;3.00;99.90;;;;;;5062510;28;20222;-48
2023/02/06 09:06:34;;;;;;;21.30;14.37;;;3.00;99.90;;;;;;5072535;28;20291;-47
2023/02/06 09:09:02;;;;;;;24.57;16.03;;;3.10;99.90;;;;;;5072832;28;20797;-48
2023/02/06 09:11:29;;;;;;;22.53;15.83;;;3.10;99.90;;;;;;5071456;28;20616;-49
2023/02/06 09:13:57;;;;;;;25.47;15.67;;;3.10;99.90;;;;;;5052572;28;20199;-48
2023/02/06 09:16:25;;;;;;;22.10;14.30;;;3.10;99.90;;;;;;5071751;28;20248;-48
2023/02/06 09:18:53;;;;;;;23.83;16.37;;;3.10;99.90;;;;;;5072554;28;20642;-48
2023/02/06 09:21:24;;;;;;;26.30;15.93;;;3.10;99.90;;;;;;5072562;28;20214;-48
2023/02/06 09:23:53;;;;;;;25.87;14.63;;;3.10;99.90;;;;;;5058441;28;20209;-48
2023/02/06 09:26:23;;;;;;;21.03;14.40;;;3.00;99.90;;;;;;5072573;28;20630;-48
2023/02/06 09:28:52;;;;;;;24.03;14.93;;;3.00;99.90;;;;;;5071841;28;20234;-48
2023/02/06 09:31:20;;;;;;;25.50;14.53;;;2.90;99.90;;;;;;5072557;28;20198;-48
2023/02/06 09:33:47;;;;;;;24.33;15.90;;;2.90;99.90;;;;;;5072333;28;20247;-47
2023/02/06 09:36:16;;;;;;;21.40;15.40;;;2.80;99.90;;;;;;5063766;28;20252;-47
2023/02/06 09:38:46;;;;;;;23.93;15.13;;;2.80;99.90;;;;;;5071213;28;20271;-47
2023/02/06 09:41:22;;;;;;;23.77;15.93;;;2.90;99.90;;;;;;5071940;28;20233;-49
2023/02/06 09:43:52;;;;;;;23.07;15.37;;;3.00;99.90;;;;;;5071612;28;20252;-48
2023/02/06 09:46:25;;;;;;;25.13;15.17;;;3.10;99.90;;;;;;5071183;28;20712;-48
2023/02/06 09:48:53;;;;;;;23.87;16.23;;;3.20;99.90;;;;;;5072309;28;20249;-48
2023/02/06 09:51:29;;;;;;;26.50;15.87;;;3.30;99.90;;;;;;5072006;28;20641;-47
2023/02/06 09:54:05;;;;;;;26.20;17.60;;;3.50;99.90;;;;;;5072076;28;20209;-48
2023/02/06 09:56:38;;;;;;;26.67;17.17;;;3.70;99.90;;;;;;5072010;28;20732;-48
2023/02/06 09:59:12;;;;;;;24.83;15.67;;;3.70;99.90;;;;;;5066102;28;20226;-48
2023/02/06 10:01:45;;;;;;;21.40;14.90;;;3.80;99.90;;;;;;5071491;28;20287;-48
2023/02/06 10:04:36;;;;;;;21.77;15.47;;;3.90;99.90;;;;;;5068482;28;20199;-48
2023/02/06 10:07:29;;;;;;;20.03;13.70;;;4.20;99.90;;;;;;5051856;28;20207;-48
2023/02/06 10:10:01;;;;;;;19.00;13.57;;;5.00;99.90;;;;;;5065435;28;20261;-49
2023/02/06 10:12:35;;;;;;;20.10;13.43;;;5.60;99.90;;;;;;5071862;28;20430;-49
2023/02/06 10:15:07;;;;;;;21.00;13.80;;;5.30;99.90;;;;;;5071310;28;20206;-48
2023/02/06 10:17:37;;;;;;;24.10;15.67;;;5.10;99.90;;;;;;5071374;28;20199;-49
2023/02/06 10:20:10;;;;;;;19.43;14.57;;;5.20;99.90;;;;;;5065343;28;20217;-48
2023/02/06 10:22:56;;;;;;;19.67;16.03;;;5.20;99.90;;;;;;5066904;28;20496;-48
2023/02/06 10:25:29;;;;;;;29.10;16.17;;;5.10;99.90;;;;;;5071303;28;20448;-48
2023/02/06 10:27:59;;;;;;;20.13;14.50;;;4.70;99.90;;;;;;5071750;28;20231;-48
2023/02/06 10:30:45;;;;;;;20.37;14.63;;;4.50;99.90;;;;;;5063200;28;20258;-48
2023/02/06 10:33:22;;;;;;;19.57;14.07;;;4.50;99.90;;;;;;5068843;28;20619;-49
2023/02/06 10:35:58;;;;;;;21.27;14.50;;;4.50;99.90;;;;;;5071361;28;20202;-47
2023/02/06 10:38:59;;;;;;;21.53;14.70;;;4.50;99.90;;;;;;5071350;28;20279;-49
2023/02/06 10:41:35;;;;;;;22.10;13.87;;;4.30;99.90;;;;;;5062137;28;20695;-48
2023/02/06 10:44:10;;;;;;;21.53;15.23;;;4.30;99.90;;;;;;5051056;28;20211;-48
2023/02/06 10:46:42;;;;;;;19.97;13.53;;;4.50;99.90;;;;;;5051418;28;20202;-48
2023/02/06 10:49:19;;;;;;;18.33;13.20;;;4.80;99.90;;;;;;5065403;28;20305;-49
2023/02/06 10:51:51;;;;;;;19.67;13.93;;;5.20;99.90;;;;;;5069519;28;20194;-48
2023/02/06 10:54:21;;;;;;;16.17;12.17;;;5.50;99.90;;;;;;5071947;28;20216;-49
2023/02/06 10:56:52;;;;;;;19.33;13.73;;;5.60;99.90;;;;;;5075055;28;20200;-48
2023/02/06 10:59:28;;;;;;;18.63;12.03;;;5.70;99.90;;;;;;5085762;22;20234;-48
2023/02/06 11:02:05;;;;;;;20.37;13.50;;;5.50;99.90;;;;;;5053877;28;20298;-47
2023/02/06 11:04:37;;;;;;;19.30;13.57;;;5.30;99.90;;;;;;5053123;28;20209;-46
2023/02/06 11:07:08;;;;;;;16.10;12.57;;;4.70;99.90;;;;;;5050567;28;20195;-48
2023/02/06 11:09:36;;;;;;;18.63;12.93;;;4.40;99.90;;;;;;5043868;28;20566;-50
2023/02/06 11:12:11;;;;;;;20.10;13.40;;;4.20;99.90;;;;;;5045522;28;20191;-49
2023/02/06 11:14:40;;;;;;;21.50;13.70;;;4.00;99.90;;;;;;5034172;28;20215;-47
2023/02/06 11:17:07;;;;;;;19.97;13.43;;;3.90;99.90;;;;;;5034470;28;20208;-46
2023/02/06 11:19:39;;;;;;;19.57;12.03;;;3.90;99.90;;;;;;5051194;28;20284;-47
2023/02/06 11:22:11;;;;;;;19.27;13.30;;;3.90;99.90;;;;;;5034434;28;20332;-46
2023/02/06 11:24:57;;;;;;;18.40;12.97;;;4.00;99.90;;;;;;5032124;28;20212;-47
2023/02/06 11:27:28;;;;;;;20.47;13.70;;;3.90;99.90;;;;;;5029456;28;20268;-46
2023/02/06 11:29:55;;;;;;;18.47;13.37;;;3.70;99.90;;;;;;5037350;28;20741;-47
2023/02/06 11:32:34;;;;;;;21.37;13.43;;;3.60;99.90;;;;;;5041896;28;20209;-48
2023/02/06 11:35:06;;;;;;;20.87;13.10;;;3.70;99.90;;;;;;5032975;28;20195;-48
2023/02/06 11:37:36;;;;;;;19.77;12.87;;;3.70;99.90;;;;;;5033309;28;20203;-48
2023/02/06 11:40:23;;;;;;;17.73;12.20;;;3.80;99.90;;;;;;5047527;28;20293;-48
2023/02/06 11:42:55;;;;;;;20.80;12.80;;;3.60;99.90;;;;;;5062317;28;20231;-47
2023/02/06 11:45:28;;;;;;;19.97;13.50;;;3.70;99.90;;;;;;5050393;28;20341;-47
2023/02/06 11:47:56;;;;;;;20.73;13.53;;;3.60;99.90;;;;;;5039861;28;20326;-47
2023/02/06 11:50:28;;;;;;;21.67;13.17;;;3.70;99.90;;;;;;5060156;28;20257;-49
2023/02/06 11:52:59;;;;;;;19.63;11.87;;;3.80;99.90;;;;;;5061493;28;20198;-47
2023/02/06 11:55:29;;;;;;;22.47;12.70;;;3.80;99.90;;;;;;5038611;28;20203;-47
2023/02/06 11:58:07;;;;;;;22.00;13.63;;;3.70;99.90;;;;;;5027516;28;20246;-47
2023/02/06 12:00:36;;;;;;;22.37;12.93;;;3.70;99.90;;;;;;5044645;28;20262;-47
2023/02/06 12:03:05;;;;;;;19.88;13.25;;;3.80;99.90;;;;;;5047619;28;20449;-47
2023/02/06 12:05:39;;;;;;;18.53;13.17;;;3.70;99.90;;;;;;5027315;28;20286;-46
2023/02/06 12:08:11;;;;;;;20.83;12.70;;;3.80;99.90;;;;;;5044741;28;20527;-46
2023/02/06 12:10:45;;;;;;;18.70;12.03;;;3.90;99.90;;;;;;5053323;28;20214;-47
2023/02/06 12:13:18;;;;;;;19.27;11.50;;;4.00;99.90;;;;;;5052053;28;20227;-47
2023/02/06 12:15:48;;;;;;;14.83;10.90;;;4.10;99.90;;;;;;5016479;28;20205;-46
2023/02/06 12:18:19;;;;;;;21.27;11.60;;;4.00;99.90;;;;;;5040225;28;20616;-47
2023/02/06 12:20:51;;;;;;;16.63;11.07;;;4.00;99.90;;;;;;5039795;28;20238;-46
2023/02/06 12:23:24;;;;;;;19.27;11.67;;;3.90;99.90;;;;;;5052729;28;20293;-47
2023/02/06 12:25:55;;;;;;;14.10;10.70;;;3.70;99.90;;;;;;5037471;28;20209;-47
2023/02/06 12:28:29;;;;;;;16.63;11.83;;;3.70;99.90;;;;;;5043087;28;20701;-47
2023/02/06 12:30:59;;;;;;;14.27;10.13;;;3.60;99.90;;;;;;5032143;28;20696;-47
2023/02/06 12:33:34;;;;;;;17.77;10.67;;;3.60;99.90;;;;;;5016803;28;20199;-46
2023/02/06 12:36:04;;;;;;;18.17;11.90;;;3.60;99.90;;;;;;5031527;28;20215;-48
2023/02/06 12:38:42;;;;;;;16.60;10.90;;;3.40;99.90;;;;;;5028853;28;20224;-48
2023/02/06 12:41:46;;;;;;;14.37;9.80;;;3.40;99.90;;;;;;5036892;28;20264;-47
2023/02/06 12:44:23;;;;;;;16.33;9.90;;;3.50;99.90;;;;;;5016583;28;20761;-47
2023/02/06 12:46:56;;;;;;;16.53;10.87;;;3.40;99.90;;;;;;5029560;28;20199;-47
2023/02/06 12:49:28;;;;;;;18.33;11.00;;;3.50;99.90;;;;;;5039473;28;20226;-47
2023/02/06 12:52:00;;;;;;;13.57;9.93;;;3.50;99.90;;;;;;5037847;28;20200;-47
2023/02/06 12:54:32;;;;;;;18.17;9.97;;;3.50;99.90;;;;;;5032213;28;20202;-47